Time,TemperatureF,DewpointF,PressureIn,WindDirection,WindDirectionDegrees,WindSpeedMPH,WindSpeedGustMPH,Humidity,HourlyPrecipIn,Conditions,Clouds,dailyrainin,SoftwareType,DateUTC
2013-11-27 00:02:00,22.2,19.0,25.94,SSW,207,4.0,8.0,87,0.00,,,0.00,weatherlink.com 1.10,2013-11-27 07:02:00,
2013-11-27 00:17:00,21.9,19.0,25.94,SSW,212,6.0,8.0,87,0.00,,,0.00,weatherlink.com 1.10,2013-11-27 07:17:00,
2013-11-27 00:32:00,21.9,19.0,25.93,South,191,5.0,7.0,87,0.00,,,0.00,weatherlink.com 1.10,2013-11-27 07:32:00,
2013-11-27 00:47:00,21.9,19.0,25.92,SW,236,7.0,9.0,87,0.00,,,0.00,weatherlink.com 1.10,2013-11-27 07:47:00,
2013-11-27 01:02:00,21.5,18.0,25.91,SSE,154,5.0,9.0,87,0.00,,,0.00,weatherlink.com 1.10,2013-11-27 08:02:00,
2013-11-27 01:17:00,20.5,17.0,25.91,SW,236,7.0,8.0,87,0.00,,,0.00,weatherlink.com 1.10,2013-11-27 08:17:00,
2013-11-27 01:32:00,20.0,17.0,25.91,SW,219,5.0,8.0,88,0.00,,,0.00,weatherlink.com 1.10,2013-11-27 08:32:00,
2013-11-27 01:47:00,19.6,17.0,25.91,WNW,293,2.0,6.0,89,0.00,,,0.00,weatherlink.com 1.10,2013-11-27 08:47:00,
2013-11-27 02:02:00,19.3,17.0,25.90,West,278,4.0,5.0,89,0.00,,,0.00,weatherlink.com 1.10,2013-11-27 09:02:00,
2013-11-27 02:17:00,19.3,17.0,25.89,WSW,241,4.0,5.0,90,0.00,,,0.00,weatherlink.com 1.10,2013-11-27 09:17:00,
2013-11-27 02:32:00,20.0,18.0,25.89,WSW,248,7.0,8.0,91,0.00,,,0.00,weatherlink.com 1.10,2013-11-27 09:32:00,
2013-11-27 02:47:00,21.5,19.0,25.88,West,262,3.0,7.0,90,0.00,,,0.00,weatherlink.com 1.10,2013-11-27 09:47:00,
2013-11-27 03:02:00,21.3,19.0,25.88,West,259,5.0,7.0,89,0.00,,,0.00,weatherlink.com 1.10,2013-11-27 10:02:00,
2013-11-27 03:18:00,21.8,19.0,25.87,West,264,6.0,7.0,89,0.00,,,0.00,weatherlink.com 1.10,2013-11-27 10:18:00,
2013-11-27 03:33:00,23.4,20.0,25.87,West,270,5.0,7.0,88,0.00,,,0.00,weatherlink.com 1.10,2013-11-27 10:33:00,
2013-11-27 03:48:00,22.5,19.0,25.86,West,262,6.0,8.0,87,0.00,,,0.00,weatherlink.com 1.10,2013-11-27 10:48:00,
2013-11-27 04:03:00,22.9,20.0,25.86,West,264,4.0,6.0,88,0.00,,,0.00,weatherlink.com 1.10,2013-11-27 11:03:00,
2013-11-27 04:18:00,23.4,20.0,25.85,WNW,293,5.0,7.0,88,0.00,,,0.00,weatherlink.com 1.10,2013-11-27 11:18:00,
2013-11-27 04:33:00,23.3,20.0,25.85,West,280,5.0,7.0,86,0.00,,,0.00,weatherlink.com 1.10,2013-11-27 11:33:00,
2013-11-27 04:48:00,23.3,20.0,25.84,West,277,3.0,7.0,87,0.00,,,0.00,weatherlink.com 1.10,2013-11-27 11:48:00,
2013-11-27 05:03:00,23.2,20.0,25.84,West,270,2.0,5.0,87,0.00,,,0.00,weatherlink.com 1.10,2013-11-27 12:03:00,
2013-11-27 05:18:00,23.3,20.0,25.83,WNW,287,5.0,6.0,86,0.00,,,0.00,weatherlink.com 1.10,2013-11-27 12:18:00,
2013-11-27 05:33:00,23.4,20.0,25.83,WNW,287,5.0,7.0,85,0.00,,,0.00,weatherlink.com 1.10,2013-11-27 12:33:00,
2013-11-27 05:48:00,23.5,20.0,25.82,West,264,3.0,8.0,87,0.00,,,0.00,weatherlink.com 1.10,2013-11-27 12:48:00,
2013-11-27 06:03:00,25.6,21.0,25.82,West,262,5.0,9.0,84,0.00,,,0.00,weatherlink.com 1.10,2013-11-27 13:03:00,
2013-11-27 06:18:00,24.9,21.0,25.81,West,264,6.0,9.0,84,0.00,,,0.00,weatherlink.com 1.10,2013-11-27 13:18:00,
2013-11-27 06:33:00,24.7,21.0,25.81,West,263,8.0,8.0,84,0.00,,,0.00,weatherlink.com 1.10,2013-11-27 13:33:00,
2013-11-27 06:48:00,24.7,20.0,25.80,West,264,3.0,8.0,83,0.00,,,0.00,weatherlink.com 1.10,2013-11-27 13:48:00,
2013-11-27 07:03:00,25.1,21.0,25.80,West,273,3.0,6.0,83,0.00,,,0.00,weatherlink.com 1.10,2013-11-27 14:03:00,
2013-11-27 07:18:00,25.9,21.0,25.80,WNW,284,1.0,5.0,81,0.00,,,0.00,weatherlink.com 1.10,2013-11-27 14:18:00,
2013-11-27 07:33:00,27.3,22.0,25.79,West,264,5.0,7.0,81,0.00,,,0.00,weatherlink.com 1.10,2013-11-27 14:33:00,
2013-11-27 07:48:00,28.8,23.0,25.79,West,262,6.0,8.0,79,0.00,,,0.00,weatherlink.com 1.10,2013-11-27 14:48:00,
2013-11-27 08:03:00,29.8,24.0,25.79,WNW,283,4.0,9.0,78,0.00,,,0.00,weatherlink.com 1.10,2013-11-27 15:03:00,
2013-11-27 08:18:00,31.6,25.0,25.79,West,271,3.0,8.0,77,0.00,,,0.00,weatherlink.com 1.10,2013-11-27 15:18:00,
2013-11-27 08:33:00,32.7,26.0,25.79,West,259,5.0,8.0,76,0.00,,,0.00,weatherlink.com 1.10,2013-11-27 15:33:00,
2013-11-27 08:48:00,34.1,27.0,25.79,West,270,6.0,9.0,76,0.00,,,0.00,weatherlink.com 1.10,2013-11-27 15:48:00,
2013-11-27 09:04:00,36.8,28.0,25.79,WNW,287,5.0,8.0,70,0.00,,,0.00,weatherlink.com 1.10,2013-11-27 16:04:00,
2013-11-27 09:19:00,38.9,30.0,25.79,West,274,3.0,8.0,70,0.00,,,0.00,weatherlink.com 1.10,2013-11-27 16:19:00,
2013-11-27 09:34:00,41.0,30.0,25.78,WNW,296,4.0,13.0,64,0.00,,,0.00,weatherlink.com 1.10,2013-11-27 16:34:00,
2013-11-27 09:49:00,43.1,30.0,25.78,West,276,5.0,11.0,61,0.00,,,0.00,weatherlink.com 1.10,2013-11-27 16:49:00,
2013-11-27 10:04:00,44.6,30.0,25.78,West,259,7.0,11.0,56,0.00,,,0.00,weatherlink.com 1.10,2013-11-27 17:04:00,
2013-11-27 10:19:00,44.4,30.0,25.77,WNW,287,8.0,11.0,57,0.00,,,0.00,weatherlink.com 1.10,2013-11-27 17:19:00,
2013-11-27 10:34:00,44.3,30.0,25.77,NW,311,8.0,13.0,58,0.00,,,0.00,weatherlink.com 1.10,2013-11-27 17:34:00,
2013-11-27 10:49:00,45.3,31.0,25.76,NW,305,6.0,12.0,57,0.00,,,0.00,weatherlink.com 1.10,2013-11-27 17:49:00,
2013-11-27 11:04:00,46.7,31.0,25.76,WNW,291,7.0,13.0,54,0.00,,,0.00,weatherlink.com 1.10,2013-11-27 18:04:00,
2013-11-27 11:19:00,47.3,32.0,25.75,WNW,287,4.0,9.0,56,0.00,,,0.00,weatherlink.com 1.10,2013-11-27 18:19:00,
2013-11-27 11:34:00,49.3,31.0,25.75,WNW,299,6.0,11.0,50,0.00,,,0.00,weatherlink.com 1.10,2013-11-27 18:34:00,
2013-11-27 11:49:00,51.2,30.0,25.75,WNW,299,10.0,12.0,45,0.00,,,0.00,weatherlink.com 1.10,2013-11-27 18:49:00,
2013-11-27 12:04:00,50.0,31.0,25.74,WNW,302,5.0,12.0,49,0.00,,,0.00,weatherlink.com 1.10,2013-11-27 19:04:00,
2013-11-27 12:19:00,49.9,32.0,25.74,NW,308,5.0,9.0,51,0.00,,,0.00,weatherlink.com 1.10,2013-11-27 19:19:00,
2013-11-27 12:34:00,50.3,33.0,25.73,WNW,300,4.0,7.0,51,0.00,,,0.00,weatherlink.com 1.10,2013-11-27 19:34:00,
2013-11-27 12:49:00,51.3,33.0,25.74,NW,304,7.0,10.0,50,0.00,,,0.00,weatherlink.com 1.10,2013-11-27 19:49:00,
2013-11-27 13:04:00,52.3,34.0,25.73,WNW,294,5.0,9.0,50,0.00,,,0.00,weatherlink.com 1.10,2013-11-27 20:04:00,
2013-11-27 13:19:00,53.4,34.0,25.74,WNW,300,3.0,8.0,48,0.00,,,0.00,weatherlink.com 1.10,2013-11-27 20:19:00,
2013-11-27 13:34:00,52.6,33.0,25.73,NW,305,6.0,10.0,48,0.00,,,0.00,weatherlink.com 1.10,2013-11-27 20:34:00,
2013-11-27 13:49:00,50.8,33.0,25.73,North,356,3.0,6.0,51,0.00,,,0.00,weatherlink.com 1.10,2013-11-27 20:49:00,
2013-11-27 14:04:00,51.6,32.0,25.74,West,262,3.0,5.0,47,0.00,,,0.00,weatherlink.com 1.10,2013-11-27 21:04:00,
2013-11-27 14:19:00,52.1,31.0,25.74,NW,318,1.0,5.0,45,0.00,,,0.00,weatherlink.com 1.10,2013-11-27 21:19:00,
2013-11-27 14:34:00,53.6,33.0,25.75,WNW,284,1.0,4.0,46,0.00,,,0.00,weatherlink.com 1.10,2013-11-27 21:34:00,
2013-11-27 14:49:00,52.9,32.0,25.75,WNW,296,3.0,5.0,46,0.00,,,0.00,weatherlink.com 1.10,2013-11-27 21:49:00,
2013-11-27 15:04:00,52.4,29.0,25.75,ENE,73,10.0,15.0,41,0.00,,,0.00,weatherlink.com 1.10,2013-11-27 22:04:00,
2013-11-27 15:19:00,51.7,29.0,25.75,NNE,27,7.0,12.0,42,0.00,,,0.00,weatherlink.com 1.10,2013-11-27 22:19:00,
2013-11-27 15:34:00,50.5,29.0,25.75,NE,48,5.0,12.0,43,0.00,,,0.00,weatherlink.com 1.10,2013-11-27 22:34:00,
2013-11-27 15:49:00,48.6,28.0,25.75,NNW,327,9.0,11.0,46,0.00,,,0.00,weatherlink.com 1.10,2013-11-27 22:49:00,
2013-11-27 16:05:00,47.3,27.0,25.75,NW,304,6.0,11.0,46,0.00,,,0.00,weatherlink.com 1.10,2013-11-27 23:05:00,
2013-11-27 16:20:00,45.2,28.0,25.76,NW,325,4.0,12.0,51,0.00,,,0.00,weatherlink.com 1.10,2013-11-27 23:20:00,
2013-11-27 16:35:00,43.8,27.0,25.76,NNW,330,8.0,11.0,52,0.00,,,0.00,weatherlink.com 1.10,2013-11-27 23:35:00,
2013-11-27 16:50:00,43.9,26.0,25.76,NNW,335,4.0,12.0,50,0.00,,,0.00,weatherlink.com 1.10,2013-11-27 23:50:00,
2013-11-27 17:05:00,45.0,26.0,25.77,NNW,345,7.0,16.0,48,0.00,,,0.00,weatherlink.com 1.10,2013-11-28 00:05:00,
2013-11-27 17:20:00,44.9,26.0,25.77,NW,316,5.0,14.0,48,0.00,,,0.00,weatherlink.com 1.10,2013-11-28 00:20:00,
2013-11-27 17:35:00,44.1,26.0,25.78,NNW,329,9.0,12.0,50,0.00,,,0.00,weatherlink.com 1.10,2013-11-28 00:35:00,
2013-11-27 17:50:00,42.9,27.0,25.78,NNW,340,7.0,12.0,53,0.00,,,0.00,weatherlink.com 1.10,2013-11-28 00:50:00,
2013-11-27 18:05:00,39.0,26.0,25.80,North,359,6.0,8.0,61,0.00,,,0.00,weatherlink.com 1.10,2013-11-28 01:05:00,
2013-11-27 18:20:00,36.8,27.0,25.80,NNW,347,2.0,5.0,67,0.00,,,0.00,weatherlink.com 1.10,2013-11-28 01:20:00,
2013-11-27 18:35:00,35.9,27.0,25.81,North,1,2.0,4.0,70,0.00,,,0.00,weatherlink.com 1.10,2013-11-28 01:35:00,
2013-11-27 18:50:00,36.9,26.0,25.81,North,1,3.0,5.0,66,0.00,,,0.00,weatherlink.com 1.10,2013-11-28 01:50:00,
2013-11-27 19:05:00,35.0,26.0,25.82,North,359,2.0,4.0,70,0.00,,,0.00,weatherlink.com 1.10,2013-11-28 02:05:00,
2013-11-27 19:20:00,35.3,26.0,25.82,North,8,2.0,5.0,70,0.00,,,0.00,weatherlink.com 1.10,2013-11-28 02:20:00,
2013-11-27 19:35:00,34.8,26.0,25.83,North,349,4.0,5.0,71,0.00,,,0.00,weatherlink.com 1.10,2013-11-28 02:35:00,
2013-11-27 19:50:00,34.0,26.0,25.84,NNE,30,2.0,3.0,73,0.00,,,0.00,weatherlink.com 1.10,2013-11-28 02:50:00,
2013-11-27 20:05:00,32.9,26.0,25.84,NNE,22,0.0,2.0,75,0.00,,,0.00,weatherlink.com 1.10,2013-11-28 03:05:00,
2013-11-27 20:20:00,31.8,25.0,25.85,NNE,18,1.0,1.0,77,0.00,,,0.00,weatherlink.com 1.10,2013-11-28 03:20:00,
2013-11-27 20:35:00,31.2,25.0,25.86,NNE,16,0.0,1.0,78,0.00,,,0.00,weatherlink.com 1.10,2013-11-28 03:35:00,
2013-11-27 20:50:00,31.2,25.0,25.86,NNE,25,0.0,1.0,78,0.00,,,0.00,weatherlink.com 1.10,2013-11-28 03:50:00,
2013-11-27 21:05:00,31.1,24.0,25.86,NNE,33,2.0,4.0,76,0.00,,,0.00,weatherlink.com 1.10,2013-11-28 04:05:00,
2013-11-27 21:20:00,29.8,24.0,25.86,NNE,18,4.0,5.0,78,0.00,,,0.00,weatherlink.com 1.10,2013-11-28 04:20:00,
2013-11-27 21:35:00,29.9,24.0,25.87,NNE,29,1.0,4.0,77,0.00,,,0.00,weatherlink.com 1.10,2013-11-28 04:35:00,
2013-11-27 21:50:00,29.5,23.0,25.87,NNE,29,0.0,0.0,77,0.00,,,0.00,weatherlink.com 1.10,2013-11-28 04:50:00,
2013-11-27 22:05:00,29.7,23.0,25.88,North,360,0.0,1.0,77,0.00,,,0.00,weatherlink.com 1.10,2013-11-28 05:05:00,
2013-11-27 22:20:00,29.2,23.0,25.88,NNE,12,2.0,2.0,77,0.00,,,0.00,weatherlink.com 1.10,2013-11-28 05:20:00,
2013-11-27 22:35:00,28.6,23.0,25.88,NNE,27,3.0,3.0,78,0.00,,,0.00,weatherlink.com 1.10,2013-11-28 05:35:00,
2013-11-27 22:50:00,27.5,23.0,25.89,North,358,0.0,3.0,82,0.00,,,0.00,weatherlink.com 1.10,2013-11-28 05:50:00,
2013-11-27 23:05:00,28.0,23.0,25.89,NNE,22,2.0,3.0,81,0.00,,,0.00,weatherlink.com 1.10,2013-11-28 06:05:00,
2013-11-27 23:20:00,27.7,23.0,25.89,NNE,29,2.0,2.0,82,0.00,,,0.00,weatherlink.com 1.10,2013-11-28 06:20:00,
2013-11-27 23:35:00,28.2,23.0,25.89,NNW,340,0.0,2.0,81,0.00,,,0.00,weatherlink.com 1.10,2013-11-28 06:35:00,
2013-11-27 23:50:00,28.3,23.0,25.89,NNE,15,2.0,3.0,81,0.00,,,0.00,weatherlink.com 1.10,2013-11-28 06:50:00,